createdAt,value
2023-04-10T00:00:41.617Z,3.70
2023-04-10T00:03:27.702Z,3.65
2023-04-10T00:06:12.941Z,3.61
2023-04-10T00:08:58.887Z,3.57
2023-04-10T00:11:44.250Z,3.56
2023-04-10T00:14:29.491Z,3.56
2023-04-10T00:17:14.873Z,3.52
2023-04-10T00:20:00.552Z,3.47
2023-04-10T00:22:45.548Z,3.42
2023-04-10T00:25:30.875Z,3.39
2023-04-10T00:28:17.304Z,3.39
2023-04-10T00:31:02.402Z,3.36
2023-04-10T00:33:47.788Z,3.33
2023-04-10T00:36:33.405Z,3.32
2023-04-10T00:39:19.034Z,3.29
2023-04-10T00:42:06.568Z,3.23
2023-04-10T00:44:51.688Z,3.26
2023-04-10T00:47:38.150Z,3.21
2023-04-10T00:50:23.520Z,3.17
2023-04-10T00:53:08.996Z,3.14
2023-04-10T00:55:55.272Z,3.11
2023-04-10T00:58:40.331Z,3.10
2023-04-10T01:01:25.814Z,3.06
2023-04-10T01:04:11.727Z,3.03
2023-04-10T01:07:15.210Z,3.00
2023-04-10T01:10:07.036Z,3.00
2023-04-10T01:13:08.793Z,2.97
2023-04-10T01:16:03.336Z,2.97
2023-04-10T01:19:01.428Z,2.96
2023-04-10T01:21:47.866Z,2.97
2023-04-10T01:25:00.440Z,2.98
2023-04-10T01:28:04.754Z,2.95
2023-04-10T01:30:58.080Z,2.95
2023-04-10T01:33:47.916Z,2.97
2023-04-10T01:36:38.033Z,2.96
2023-04-10T01:39:26.427Z,2.85
2023-04-10T01:42:15.031Z,2.84
2023-04-10T01:45:01.792Z,2.87
2023-04-10T01:47:48.302Z,2.85
2023-04-10T01:50:34.690Z,2.80
2023-04-10T01:53:20.723Z,2.73
2023-04-10T01:56:08.430Z,2.70
2023-04-10T01:58:53.859Z,2.68
2023-04-10T02:01:38.856Z,2.63
2023-04-10T02:04:26.549Z,2.60
2023-04-10T02:07:29.096Z,2.57
2023-04-10T02:10:24.760Z,2.62
2023-04-10T02:13:12.241Z,2.67
2023-04-10T02:16:04.044Z,2.62
2023-04-10T02:18:50.725Z,2.59
2023-04-10T02:21:36.682Z,2.47
2023-04-10T02:24:22.697Z,2.44
2023-04-10T02:27:07.952Z,2.42
2023-04-10T02:29:53.167Z,2.41
2023-04-10T02:32:38.693Z,2.39
2023-04-10T02:35:24.044Z,2.37
2023-04-10T02:38:09.366Z,2.28
2023-04-10T02:40:54.681Z,2.25
2023-04-10T02:43:40.471Z,2.24
2023-04-10T02:46:26.030Z,2.26
2023-04-10T02:49:11.117Z,2.31
2023-04-10T02:51:56.735Z,2.26
2023-04-10T02:54:41.801Z,2.28
2023-04-10T02:57:27.377Z,2.27
2023-04-10T03:00:13.175Z,2.30
2023-04-10T03:02:58.388Z,2.38
2023-04-10T03:05:43.906Z,2.36
2023-04-10T03:08:30.432Z,2.32
2023-04-10T03:11:15.508Z,2.36
2023-04-10T03:14:01.133Z,2.35
2023-04-10T03:16:47.848Z,2.38
2023-04-10T03:19:32.909Z,2.40
2023-04-10T03:22:18.258Z,2.41
2023-04-10T03:25:03.550Z,2.42
2023-04-10T03:27:48.986Z,2.46
2023-04-10T03:30:37.036Z,2.49
2023-04-10T03:33:22.401Z,2.51
2023-04-10T03:36:08.612Z,2.44
2023-04-10T03:38:54.069Z,2.49
2023-04-10T03:41:39.285Z,2.53
2023-04-10T03:44:24.594Z,2.53
2023-04-10T03:47:10.030Z,2.57
2023-04-10T03:49:55.050Z,2.58
2023-04-10T03:52:40.471Z,2.53
2023-04-10T03:55:25.955Z,2.57
2023-04-10T03:58:12.296Z,2.58
2023-04-10T04:00:57.790Z,2.63
2023-04-10T04:03:43.462Z,2.65
2023-04-10T04:06:29.043Z,2.59
2023-04-10T04:09:14.459Z,2.59
2023-04-10T04:11:59.444Z,2.62
2023-04-10T04:14:45.300Z,2.66
2023-04-10T04:17:30.831Z,2.69
2023-04-10T04:20:16.148Z,2.73
2023-04-10T04:23:01.511Z,2.75
2023-04-10T04:25:46.912Z,2.71
2023-04-10T04:28:32.077Z,2.74
2023-04-10T04:31:17.418Z,2.81
2023-04-10T04:34:02.698Z,2.81
2023-04-10T04:36:47.940Z,2.80
2023-04-10T04:39:33.315Z,2.85
2023-04-10T04:42:18.728Z,2.79
2023-04-10T04:45:04.267Z,2.81
2023-04-10T04:47:49.371Z,2.71
2023-04-10T04:50:35.292Z,2.76
2023-04-10T04:53:20.539Z,2.79
2023-04-10T04:56:06.370Z,2.80
2023-04-10T04:58:51.635Z,2.80
2023-04-10T05:01:37.233Z,2.85
2023-04-10T05:04:22.581Z,2.85
2023-04-10T05:07:07.717Z,2.78
2023-04-10T05:09:53.231Z,2.77
2023-04-10T05:12:38.587Z,2.81
2023-04-10T05:15:24.338Z,2.77
2023-04-10T05:18:09.549Z,2.86
2023-04-10T05:20:54.903Z,2.94
2023-04-10T05:23:40.405Z,3.01
2023-04-10T05:26:25.671Z,3.09
2023-04-10T05:29:11.017Z,3.12
2023-04-10T05:31:56.395Z,3.08
2023-04-10T05:34:41.600Z,3.09
2023-04-10T05:37:26.953Z,3.15
2023-04-10T05:40:12.223Z,3.23
2023-04-10T05:42:57.765Z,3.27
2023-04-10T05:45:46.166Z,3.34
2023-04-10T05:48:31.561Z,3.37
2023-04-10T05:51:17.042Z,3.24
2023-04-10T05:54:02.167Z,3.20
2023-04-10T05:56:47.523Z,3.20
2023-04-10T05:59:32.757Z,3.25
2023-04-10T06:02:19.359Z,3.20
2023-04-10T06:05:05.338Z,3.24
2023-04-10T06:07:51.713Z,3.31
2023-04-10T06:10:36.994Z,3.40
2023-04-10T06:13:22.533Z,3.47
2023-04-10T06:16:08.551Z,3.47
2023-04-10T06:18:54.467Z,3.44
2023-04-10T06:21:40.152Z,3.42
2023-04-10T06:24:25.462Z,3.43
2023-04-10T06:27:10.662Z,3.50
2023-04-10T06:29:56.320Z,3.49
2023-04-10T06:32:41.835Z,3.55
2023-04-10T06:35:27.453Z,3.63
2023-04-10T06:38:12.742Z,3.70
2023-04-10T06:40:58.308Z,3.72
2023-04-10T06:43:43.792Z,3.80
2023-04-10T06:46:29.070Z,3.81
2023-04-10T06:49:14.354Z,3.87
2023-04-10T06:51:59.447Z,3.90
2023-04-10T06:54:44.675Z,3.92
2023-04-10T06:57:29.867Z,3.94
2023-04-10T07:00:15.690Z,3.93
2023-04-10T07:03:00.946Z,3.92
2023-04-10T07:05:46.522Z,3.95
2023-04-10T07:08:31.529Z,3.96
2023-04-10T07:11:17.212Z,3.98
2023-04-10T07:14:02.193Z,4.03
2023-04-10T07:16:48.190Z,4.02
2023-04-10T07:19:33.726Z,4.05
2023-04-10T07:22:18.832Z,4.10
2023-04-10T07:25:04.419Z,4.17
2023-04-10T07:27:49.409Z,4.26
2023-04-10T07:30:34.658Z,4.34
2023-04-10T07:33:20.283Z,4.44
2023-04-10T07:36:07.059Z,4.51
2023-04-10T07:38:52.859Z,4.59
2023-04-10T07:41:38.541Z,4.67
2023-04-10T07:44:23.715Z,4.78
2023-04-10T07:47:09.091Z,4.91
2023-04-10T07:49:54.340Z,5.10
2023-04-10T07:52:39.719Z,5.17
2023-04-10T07:55:24.975Z,5.33
2023-04-10T07:58:10.956Z,5.45
2023-04-10T08:00:56.379Z,5.56
2023-04-10T08:03:47.612Z,5.66
2023-04-10T08:06:33.408Z,5.75
2023-04-10T08:09:18.439Z,5.83
2023-04-10T08:12:03.860Z,5.90
2023-04-10T08:14:49.529Z,5.97
2023-04-10T08:17:34.962Z,6.07
2023-04-10T08:20:20.389Z,6.16
2023-04-10T08:23:17.018Z,6.25
2023-04-10T08:26:05.846Z,6.35
2023-04-10T08:28:53.110Z,6.45
2023-04-10T08:31:38.736Z,6.56
2023-04-10T08:34:24.470Z,6.64
2023-04-10T08:37:12.253Z,6.73
2023-04-10T08:39:58.788Z,6.81
2023-04-10T08:42:44.019Z,6.89
2023-04-10T08:45:29.026Z,6.95
2023-04-10T08:48:16.352Z,7.04
2023-04-10T08:51:04.376Z,7.11
2023-04-10T08:53:51.969Z,7.22
2023-04-10T08:56:40.330Z,7.29
2023-04-10T08:59:25.651Z,7.34
2023-04-10T09:02:11.116Z,7.42
2023-04-10T09:05:00.614Z,7.45
2023-04-10T09:07:45.847Z,7.48
2023-04-10T09:10:31.692Z,7.56
2023-04-10T09:13:16.641Z,7.60
2023-04-10T09:16:02.103Z,7.67
2023-04-10T09:18:50.782Z,7.77
2023-04-10T09:21:36.050Z,7.84
2023-04-10T09:24:21.469Z,7.91
2023-04-10T09:27:07.620Z,8.04
2023-04-10T09:29:52.872Z,8.09
2023-04-10T09:32:41.448Z,8.20
2023-04-10T09:35:37.012Z,8.25
2023-04-10T09:38:22.402Z,8.35
2023-04-10T09:41:08.591Z,8.39
2023-04-10T09:44:08.033Z,8.45
2023-04-10T09:46:54.258Z,8.49
2023-04-10T09:50:06.552Z,8.58
2023-04-10T09:52:57.930Z,8.65
2023-04-10T09:55:43.807Z,8.69
2023-04-10T09:58:29.469Z,8.64
2023-04-10T10:01:15.081Z,8.67
2023-04-10T10:04:04.884Z,8.65
2023-04-10T10:06:50.545Z,8.67
2023-04-10T10:09:37.084Z,8.63
2023-04-10T10:12:27.283Z,8.59
2023-04-10T10:15:35.508Z,8.62
2023-04-10T10:18:44.095Z,8.65
2023-04-10T10:21:30.739Z,8.71
2023-04-10T10:24:17.258Z,8.74
2023-04-10T10:27:04.221Z,8.80
2023-04-10T10:29:50.550Z,8.80
2023-04-10T10:32:36.619Z,8.82
2023-04-10T10:35:25.462Z,8.70
2023-04-10T10:38:12.789Z,8.66
2023-04-10T10:41:28.716Z,8.58
2023-04-10T10:44:52.686Z,8.57
2023-04-10T10:47:50.870Z,8.63
2023-04-10T10:50:59.260Z,8.59
2023-04-10T10:53:45.341Z,8.59
2023-04-10T10:56:34.668Z,8.63
2023-04-10T10:59:48.938Z,8.61
2023-04-10T11:02:34.471Z,8.59
2023-04-10T11:05:55.295Z,8.61
2023-04-10T11:08:44.356Z,8.64
2023-04-10T11:11:29.774Z,8.64
2023-04-10T11:14:18.036Z,8.65
2023-04-10T11:17:03.253Z,8.64
2023-04-10T11:20:00.583Z,8.65
2023-04-10T11:23:11.908Z,8.67
2023-04-10T11:25:57.517Z,8.69
2023-04-10T11:28:42.910Z,8.76
2023-04-10T11:31:28.764Z,8.81
2023-04-10T11:34:15.787Z,8.81
2023-04-10T11:37:03.014Z,8.87
2023-04-10T11:39:48.192Z,8.90
2023-04-10T11:42:33.558Z,8.88
2023-04-10T11:45:28.700Z,8.92
2023-04-10T11:48:17.054Z,8.96
2023-04-10T11:51:10.521Z,8.90
2023-04-10T11:54:13.885Z,8.96
2023-04-10T11:57:02.898Z,9.03
2023-04-10T11:59:51.421Z,9.07
2023-04-10T12:02:51.700Z,9.12
2023-04-10T12:05:55.436Z,9.17
2023-04-10T12:08:49.490Z,9.27
2023-04-10T12:11:35.108Z,9.33
2023-04-10T12:14:24.150Z,9.43
2023-04-10T12:17:11.127Z,9.48
2023-04-10T12:19:57.634Z,9.51
2023-04-10T12:22:44.254Z,9.51
2023-04-10T12:25:29.468Z,9.55
2023-04-10T12:28:19.081Z,9.59
2023-04-10T12:31:04.929Z,9.62
2023-04-10T12:33:53.670Z,9.66
2023-04-10T12:36:38.790Z,9.70
2023-04-10T12:39:24.973Z,9.74
2023-04-10T12:42:19.448Z,9.74
2023-04-10T12:45:05.599Z,9.81
2023-04-10T12:47:54.164Z,9.86
2023-04-10T12:50:49.872Z,9.91
2023-04-10T12:53:44.479Z,9.96
2023-04-10T12:56:41.067Z,10.02
2023-04-10T12:59:26.917Z,10.02
2023-04-10T13:02:12.237Z,10.04
2023-04-10T13:04:57.642Z,10.03
2023-04-10T13:07:43.281Z,10.00
2023-04-10T13:10:28.763Z,10.04
2023-04-10T13:13:14.312Z,10.14
2023-04-10T13:16:00.134Z,10.24
2023-04-10T13:18:45.252Z,10.31
2023-04-10T13:21:30.521Z,10.34
2023-04-10T13:24:16.759Z,10.37
2023-04-10T13:27:02.356Z,10.37
2023-04-10T13:29:47.460Z,10.25
2023-04-10T13:32:32.582Z,10.16
2023-04-10T13:35:17.918Z,9.95
2023-04-10T13:38:04.077Z,9.74
2023-04-10T13:40:49.562Z,9.72
2023-04-10T13:43:34.764Z,9.70
2023-04-10T13:46:20.215Z,9.67
2023-04-10T13:49:06.796Z,9.76
2023-04-10T13:51:52.043Z,9.87
2023-04-10T13:54:37.412Z,9.94
2023-04-10T13:57:22.649Z,10.00
2023-04-10T14:00:08.657Z,10.04
2023-04-10T14:02:53.788Z,10.12
2023-04-10T14:05:39.641Z,10.10
2023-04-10T14:08:24.676Z,10.14
2023-04-10T14:11:09.888Z,10.15
2023-04-10T14:13:55.470Z,10.16
2023-04-10T14:16:40.651Z,10.16
2023-04-10T14:19:25.934Z,10.09
2023-04-10T14:22:11.320Z,10.01
2023-04-10T14:25:09.398Z,9.97
2023-04-10T14:27:57.628Z,10.03
2023-04-10T14:30:43.738Z,9.98
2023-04-10T14:33:29.063Z,10.01
2023-04-10T14:36:14.388Z,10.02
2023-04-10T14:38:59.750Z,10.04
2023-04-10T14:41:45.251Z,10.05
2023-04-10T14:44:30.828Z,10.11
2023-04-10T14:47:15.865Z,10.18
2023-04-10T14:50:00.938Z,10.22
2023-04-10T14:52:46.575Z,10.25
2023-04-10T14:55:32.003Z,10.21
2023-04-10T14:58:17.269Z,10.21
2023-04-10T15:01:02.565Z,10.24
2023-04-10T15:03:48.712Z,10.29
2023-04-10T15:06:34.378Z,10.37
2023-04-10T15:09:21.479Z,10.45
2023-04-10T15:12:07.470Z,10.48
2023-04-10T15:14:52.553Z,10.46
2023-04-10T15:17:38.106Z,10.48
2023-04-10T15:20:23.429Z,10.50
2023-04-10T15:23:09.140Z,10.45
2023-04-10T15:25:55.114Z,10.46
2023-04-10T15:28:41.490Z,10.46
2023-04-10T15:31:26.950Z,10.45
2023-04-10T15:34:13.332Z,10.42
2023-04-10T15:36:58.615Z,10.43
2023-04-10T15:39:43.915Z,10.36
2023-04-10T15:42:29.518Z,10.36
2023-04-10T15:45:14.818Z,10.34
2023-04-10T15:48:01.349Z,10.24
2023-04-10T15:50:46.524Z,10.22
2023-04-10T15:53:31.910Z,10.25
2023-04-10T15:56:17.163Z,10.33
2023-04-10T15:59:05.261Z,10.40
2023-04-10T16:01:50.651Z,10.43
2023-04-10T16:04:35.994Z,10.42
2023-04-10T16:07:21.491Z,10.42
2023-04-10T16:10:09.185Z,10.44
2023-04-10T16:12:56.487Z,10.42
2023-04-10T16:15:41.822Z,10.35
2023-04-10T16:18:27.441Z,10.34
2023-04-10T16:21:14.323Z,10.33
2023-04-10T16:24:00.933Z,10.39
2023-04-10T16:26:46.382Z,10.45
2023-04-10T16:29:31.625Z,10.46
2023-04-10T16:32:19.412Z,10.43
2023-04-10T16:35:04.916Z,10.38
2023-04-10T16:37:50.370Z,10.38
2023-04-10T16:40:35.366Z,10.36
2023-04-10T16:43:21.297Z,10.38
2023-04-10T16:46:07.922Z,10.37
2023-04-10T16:48:53.604Z,10.36
2023-04-10T16:51:39.143Z,10.34
2023-04-10T16:54:24.063Z,10.29
2023-04-10T16:57:09.456Z,10.28
2023-04-10T16:59:59.006Z,10.28
2023-04-10T17:02:44.203Z,10.24
2023-04-10T17:05:34.857Z,10.21
2023-04-10T17:08:19.849Z,10.15
2023-04-10T17:11:05.333Z,10.07
2023-04-10T17:13:50.641Z,10.01
2023-04-10T17:16:35.830Z,9.90
2023-04-10T17:19:21.223Z,9.81
2023-04-10T17:22:15.446Z,9.75
2023-04-10T17:25:00.963Z,9.62
2023-04-10T17:27:46.421Z,9.52
2023-04-10T17:30:31.663Z,9.45
2023-04-10T17:33:16.934Z,9.39
2023-04-10T17:36:02.454Z,9.30
2023-04-10T17:38:47.963Z,9.23
2023-04-10T17:41:33.120Z,9.19
2023-04-10T17:44:19.589Z,9.18
2023-04-10T17:47:05.188Z,9.14
2023-04-10T17:49:50.299Z,9.07
2023-04-10T17:52:35.548Z,9.01
2023-04-10T17:55:21.398Z,8.98
2023-04-10T17:58:07.244Z,8.96
2023-04-10T18:00:52.750Z,8.92
2023-04-10T18:03:38.625Z,8.88
2023-04-10T18:06:24.566Z,8.76
2023-04-10T18:09:09.671Z,8.72
2023-04-10T18:11:55.013Z,8.74
2023-04-10T18:14:42.539Z,8.70
2023-04-10T18:17:27.611Z,8.70
2023-04-10T18:20:12.814Z,8.69
2023-04-10T18:22:58.006Z,8.66
2023-04-10T18:25:52.109Z,8.66
2023-04-10T18:28:38.744Z,8.69
2023-04-10T18:31:23.906Z,8.69
2023-04-10T18:34:09.075Z,8.66
2023-04-10T18:36:55.617Z,8.60
2023-04-10T18:39:40.680Z,8.53
2023-04-10T18:42:27.721Z,8.52
2023-04-10T18:45:13.181Z,8.54
2023-04-10T18:47:58.614Z,8.53
2023-04-10T18:50:44.272Z,8.50
2023-04-10T18:53:29.492Z,8.45
2023-04-10T18:56:14.616Z,8.34
2023-04-10T18:58:59.947Z,8.26
2023-04-10T19:01:45.001Z,8.16
2023-04-10T19:04:30.358Z,8.07
2023-04-10T19:07:15.854Z,7.97
2023-04-10T19:10:01.335Z,7.91
2023-04-10T19:12:47.284Z,7.91
2023-04-10T19:15:32.390Z,7.84
2023-04-10T19:18:17.917Z,7.79
2023-04-10T19:21:04.231Z,7.72
2023-04-10T19:23:49.589Z,7.66
2023-04-10T19:26:34.999Z,7.65
2023-04-10T19:29:20.205Z,7.65
2023-04-10T19:32:05.653Z,7.59
2023-04-10T19:34:51.473Z,7.58
2023-04-10T19:37:36.574Z,7.53
2023-04-10T19:40:22.172Z,7.51
2023-04-10T19:43:07.196Z,7.48
2023-04-10T19:45:53.414Z,7.51
2023-04-10T19:48:38.589Z,7.52
2023-04-10T19:51:24.074Z,7.52
2023-04-10T19:54:09.292Z,7.53
2023-04-10T19:56:54.556Z,7.54
2023-04-10T19:59:39.836Z,7.56
2023-04-10T20:02:25.304Z,7.56
2023-04-10T20:05:10.799Z,7.54
2023-04-10T20:07:56.452Z,7.52
2023-04-10T20:10:41.490Z,7.51
2023-04-10T20:13:27.166Z,7.52
2023-04-10T20:16:12.685Z,7.51
2023-04-10T20:18:57.987Z,7.46
2023-04-10T20:21:43.242Z,7.45
2023-04-10T20:24:29.500Z,7.42
2023-04-10T20:27:15.565Z,7.36
2023-04-10T20:30:00.634Z,7.30
2023-04-10T20:32:47.056Z,7.27
2023-04-10T20:35:32.867Z,7.21
2023-04-10T20:38:18.303Z,7.17
2023-04-10T20:41:03.437Z,7.14
2023-04-10T20:43:48.691Z,7.10
2023-04-10T20:46:34.194Z,7.05
2023-04-10T20:49:19.432Z,7.01
2023-04-10T20:52:06.363Z,6.94
2023-04-10T20:54:51.690Z,6.89
2023-04-10T20:57:36.925Z,6.86
2023-04-10T21:00:22.402Z,6.79
2023-04-10T21:03:08.148Z,6.67
2023-04-10T21:05:54.049Z,6.61
2023-04-10T21:08:39.622Z,6.54
2023-04-10T21:11:27.257Z,6.46
2023-04-10T21:14:13.627Z,6.42
2023-04-10T21:16:58.806Z,6.36
2023-04-10T21:19:44.043Z,6.28
2023-04-10T21:22:29.579Z,6.23
2023-04-10T21:25:15.256Z,6.19
2023-04-10T21:28:00.715Z,6.17
2023-04-10T21:30:46.158Z,6.20
2023-04-10T21:33:32.665Z,6.17
2023-04-10T21:36:18.370Z,6.10
2023-04-10T21:39:03.712Z,6.05
2023-04-10T21:41:48.952Z,5.98
2023-04-10T21:44:34.310Z,5.89
2023-04-10T21:47:19.574Z,5.85
2023-04-10T21:50:05.538Z,5.82
2023-04-10T21:52:50.792Z,5.78
2023-04-10T21:55:36.034Z,5.73
2023-04-10T21:58:21.440Z,5.70
2023-04-10T22:01:08.090Z,5.72
2023-04-10T22:03:54.283Z,5.69
2023-04-10T22:06:39.416Z,5.63
2023-04-10T22:09:24.899Z,5.59
2023-04-10T22:12:10.368Z,5.54
2023-04-10T22:14:55.753Z,5.53
2023-04-10T22:17:41.151Z,5.49
2023-04-10T22:20:26.372Z,5.45
2023-04-10T22:23:11.718Z,5.46
2023-04-10T22:26:00.938Z,5.45
2023-04-10T22:28:46.305Z,5.46
2023-04-10T22:31:31.533Z,5.44
2023-04-10T22:34:16.753Z,5.44
2023-04-10T22:37:02.484Z,5.42
2023-04-10T22:39:47.559Z,5.38
2023-04-10T22:42:32.839Z,5.37
2023-04-10T22:45:18.331Z,5.37
2023-04-10T22:48:03.810Z,5.37
2023-04-10T22:50:49.454Z,5.36
2023-04-10T22:53:34.877Z,5.35
2023-04-10T22:56:26.142Z,5.34
2023-04-10T22:59:11.192Z,5.37
2023-04-10T23:01:56.557Z,5.38
2023-04-10T23:04:41.775Z,5.37
2023-04-10T23:07:27.952Z,5.38
2023-04-10T23:10:13.188Z,5.43
2023-04-10T23:12:58.710Z,5.44
2023-04-10T23:15:51.967Z,5.45
2023-04-10T23:18:37.657Z,5.44
2023-04-10T23:21:22.981Z,5.50
2023-04-10T23:24:08.256Z,5.54
2023-04-10T23:26:53.334Z,5.53
2023-04-10T23:29:38.558Z,5.52
2023-04-10T23:32:23.936Z,5.53
2023-04-10T23:35:09.439Z,5.53
2023-04-10T23:37:54.879Z,5.55
2023-04-10T23:40:39.846Z,5.57
2023-04-10T23:43:25.828Z,5.59
2023-04-10T23:46:10.925Z,5.59
2023-04-10T23:48:56.775Z,5.58
2023-04-10T23:51:42.047Z,5.59
2023-04-10T23:54:27.374Z,5.59
2023-04-10T23:57:12.815Z,5.56
2023-04-10T23:59:58.077Z,5.59
